Kalamazoo Battle Creek International Airport Kalamazoo US
ICAO: KAZO
IATA: AZO
Category: Medium
Scheduled Services: Yes

Elevation: 874 ft
TransAlt. 18000 ft.

Airport Communications:
APP/DEP:119.2
ATIS:127.25
CLNC DEL:121.75
CTAF:118.3
GND:121.9
LANSING RDO:109
TWR:118.3
UNICOM:122.95

KAZO Zoom In..

Runways:

(A) RW 05 length 3439 ft width 100 ft
---- / hdg 48

(B) RW 09 length 2800 ft width 60 ft
---- / hdg 93

(C) RW 17 length 6502 ft width 150 ft
---- / hdg 174

(D) RW 23 length 3439 ft width 100 ft
---- / hdg 228

(E) RW 27 length 2800 ft width 60 ft
---- / hdg 273

(F) RW 35 length 6502 ft width 150 ft
ILS 110.90 / hdg 354

Location; KAZO
Day. 21 / Time. 23.53 Zulu
* Altimeter: 30.36
* Temperature: 12° c. 53.6°f.
* Wind from: 330° Speed 06 kn.
Dewpoint: -02° c.
Visibility: 10 Statute Miles.
Clouds: Clear (automated report).

KAZO 212353Z 33006KT 10SM CLR 12/M02 A3036 RMK AO2 SLP287 T01221022 10150 20122 58008


Wind From 330°
Speed 06 kn.

  YouTube Music Video
 
jpsmedia.com for Web Design  worldairports.se 2018   terms of use